Other Surface Observations
Issued by NWS Missoula, MT

Home | Current Version | Previous Version | Text Only | Print | Product List | Glossary On
Versions: 1 2 3 4 5 6 7 8 9 10 11 12 13 14 15 16 17 18 19 20 21 22 23 24 25 26 27 28 29 30 31 32 33 34 35 36 37 38 39 40 41 42 43 44 45 46 47 48 49 50
000
SXUS55 KMSO 030543
OSOMSO
MONTANA AWOS SUMMARY
NATIONAL WEATHER SERVICE MISSOULA MT
1143 PM MDT TUE JUN 2 2015

Montana AWOS Reports

LAUREL      |K6S8 030535Z AUTO 00000KT 40SM 11/04 A2999 RMK AO1 T01110044
TWIN BRIDGES|K7S1 030535Z AUTO 11005KT 40SM 12/07 A3002 RMK AO1 T01170067
ROUNDUP     |KRPX 030535Z AUTO 00000KT 3/4SM BR 12/09 A2991 RMK AO1 T01170094
MALTA       |KM75 030535Z AUTO 00000KT 10SM 14/10 A2994 RMK AO1 T01390100




USA.gov is the U.S. government's official web portal to all federal, state and local government web resources and services.